Time;durP1;ratioP1;P1;durP2;ratioP2;P2;SDS_P1;SDS_P2;PMS_P1;PMS_P2;Temp;Humidity;BMP_temperature;BMP_pressure;BME280_temperature;BME280_humidity;BME280_pressure;Samples;Min_cycle;Max_cycle;Signal;HPM_P1;HPM_P2
2023/07/05 05:00:52;;;;;;;;;4.50;1.00;;;;;17.47;66.05;-19675.75;5759592;23;46395;-86
2023/07/05 05:05:53;;;;;;;;;1.33;1.33;;;;;17.44;66.49;-19674.94;4957555;23;45509;-75
2023/07/05 05:08:19;;;;;;;;;4.67;1.00;;;;;17.44;66.49;-19675.06;4953462;28;45496;-75
2023/07/05 05:10:48;;;;;;;;;1.67;1.67;;;;;17.52;66.77;-19677.22;4947608;28;45460;-76
2023/07/05 05:13:14;;;;;;;;;3.00;2.00;;;;;17.49;66.80;-19676.41;4938019;28;46723;-76
2023/07/05 05:15:40;;;;;;;;;3.67;2.00;;;;;17.47;66.53;-19675.75;4955330;28;45741;-76
2023/07/05 05:18:07;;;;;;;;;2.00;2.00;;;;;17.61;66.73;-19679.50;4920012;28;45367;-76
2023/07/05 05:20:32;;;;;;;;;2.00;2.00;;;;;17.55;66.59;-19677.88;4955952;28;45872;-76
2023/07/05 05:23:01;;;;;;;;;5.00;3.33;;;;;17.64;66.67;-19680.16;4939072;28;45581;-78
2023/07/05 05:25:27;;;;;;;;;3.67;1.67;;;;;17.65;66.99;-19680.56;4955968;28;45553;-79
2023/07/05 05:27:52;;;;;;;;;3.00;1.00;;;;;17.78;66.69;-19683.78;4956573;28;45501;-78
2023/07/05 05:30:17;;;;;;;;;3.33;3.00;;;;;17.79;66.33;-19684.03;4955484;28;45738;-78
2023/07/05 05:32:45;;;;;;;;;3.33;2.00;;;;;17.85;66.62;-19685.66;4956118;28;45773;-79
2023/07/05 05:35:10;;;;;;;;;4.33;3.00;;;;;17.88;66.27;-19686.56;4953646;28;45436;-79
2023/07/05 05:37:36;;;;;;;;;1.33;1.33;;;;;18.09;66.34;-19691.94;4955944;28;45374;-79
2023/07/05 05:40:02;;;;;;;;;3.00;3.00;;;;;18.17;66.13;-19694.06;4956936;28;45596;-78
2023/07/05 05:42:29;;;;;;;;;5.00;2.33;;;;;18.24;65.98;-19695.94;4957098;28;45486;-78
2023/07/05 05:44:54;;;;;;;;;2.00;2.00;;;;;18.15;65.44;-19693.53;4955696;28;45590;-78
2023/07/05 05:47:20;;;;;;;;;4.67;2.00;;;;;18.14;65.89;-19693.25;4956695;28;45481;-78
2023/07/05 05:49:46;;;;;;;;;3.00;3.00;;;;;18.39;66.08;-19699.69;4956742;28;45493;-78
2023/07/05 05:52:11;;;;;;;;;2.00;2.00;;;;;18.46;65.69;-19701.69;4955875;28;45496;-78
2023/07/05 05:54:36;;;;;;;;;2.67;2.00;;;;;18.42;65.22;-19700.47;4954758;28;45535;-78
2023/07/05 05:57:02;;;;;;;;;3.00;2.00;;;;;18.51;64.86;-19702.88;4955074;28;45540;-78
2023/07/05 05:59:27;;;;;;;;;3.33;2.67;;;;;18.54;65.04;-19703.69;4935184;28;45391;-79
2023/07/05 06:01:53;;;;;;;;;3.00;2.00;;;;;18.53;65.54;-19703.41;4953437;28;46512;-79
2023/07/05 06:04:18;;;;;;;;;3.00;3.00;;;;;18.65;65.71;-19706.50;4956236;28;45669;-79
2023/07/05 06:06:44;;;;;;;;;2.67;2.67;;;;;18.76;64.75;-19709.56;4936245;28;45396;-79
2023/07/05 06:09:10;;;;;;;;;4.00;2.00;;;;;18.84;64.74;-19711.56;4949602;28;49084;-77
2023/07/05 06:11:35;;;;;;;;;4.00;4.00;;;;;18.83;65.13;-19711.19;4953724;28;45502;-79
2023/07/05 06:14:01;;;;;;;;;2.00;1.33;;;;;18.86;64.07;-19712.09;4947622;28;45400;-79
2023/07/05 06:16:26;;;;;;;;;3.33;2.00;;;;;19.03;64.10;-19716.38;4946834;28;45565;-80
2023/07/05 06:18:52;;;;;;;;;5.67;2.00;;;;;19.06;64.06;-19717.19;4956516;28;45391;-79
2023/07/05 06:21:17;;;;;;;;;3.00;1.67;;;;;19.07;64.00;-19717.59;4952162;28;46100;-79
2023/07/05 06:23:42;;;;;;;;;4.67;2.67;;;;;18.98;64.26;-19715.31;4947721;28;45391;-77
2023/07/05 06:26:08;;;;;;;;;3.00;2.00;;;;;18.97;63.58;-19714.91;4950642;28;45568;-76
2023/07/05 06:28:34;;;;;;;;;1.00;1.00;;;;;19.17;64.04;-19720.13;4956243;28;45557;-76
2023/07/05 06:31:09;;;;;;;;;3.00;1.33;;;;;19.23;63.36;-19721.59;4952242;28;45523;-78
2023/07/05 06:33:35;;;;;;;;;2.00;2.00;;;;;19.19;63.24;-19720.66;4954148;28;45724;-79
2023/07/05 06:36:01;;;;;;;;;4.00;2.00;;;;;19.31;63.34;-19723.84;4954526;28;45543;-79
2023/07/05 06:38:27;;;;;;;;;5.00;1.00;;;;;19.36;63.34;-19725.19;4937879;28;45586;-78
2023/07/05 06:40:53;;;;;;;;;2.67;2.67;;;;;19.39;64.07;-19725.88;4937491;28;46424;-78
2023/07/05 06:43:21;;;;;;;;;1.00;1.00;;;;;19.44;63.16;-19727.19;4937791;28;45451;-78
2023/07/05 06:45:48;;;;;;;;;4.33;2.00;;;;;19.54;62.86;-19729.88;4936682;28;45451;-77
2023/07/05 06:48:14;;;;;;;;;2.33;2.33;;;;;19.31;62.90;-19723.84;4952063;28;45502;-78
2023/07/05 06:50:39;;;;;;;;;1.00;1.00;;;;;19.57;62.76;-19730.53;4954824;28;45559;-78
2023/07/05 06:53:04;;;;;;;;;2.00;2.00;;;;;19.66;62.76;-19732.81;4936353;28;45394;-78
2023/07/05 06:55:29;;;;;;;;;4.00;2.00;;;;;19.59;63.13;-19731.06;4951603;28;51099;-77
2023/07/05 06:57:55;;;;;;;;;1.67;1.67;;;;;19.15;61.97;-19719.72;4950085;28;45454;-84
2023/07/05 07:00:21;;;;;;;;;2.67;2.67;;;;;19.18;62.77;-19720.53;4938518;23;48081;-83
2023/07/05 07:02:49;;;;;;;;;1.00;1.00;;;;;19.19;62.90;-19720.66;4953159;28;45610;-88
2023/07/05 07:05:15;;;;;;;;;2.67;1.67;;;;;19.45;62.33;-19727.47;4941246;23;45565;-80
2023/07/05 07:07:41;;;;;;;;;2.00;2.00;;;;;19.65;62.52;-19732.66;4935747;28;45703;-77
2023/07/05 07:10:07;;;;;;;;;2.00;2.00;;;;;19.51;61.69;-19729.06;4940769;28;46212;-78
2023/07/05 07:12:33;;;;;;;;;2.00;2.00;;;;;19.72;62.12;-19734.41;4932608;28;45889;-77
2023/07/05 07:14:59;;;;;;;;;3.00;2.00;;;;;19.76;61.92;-19735.47;4949427;28;45431;-78
2023/07/05 07:17:24;;;;;;;;;2.00;2.00;;;;;19.64;62.16;-19732.41;4943039;28;45476;-77
2023/07/05 07:19:50;;;;;;;;;2.00;2.00;;;;;19.85;61.81;-19737.88;4938651;28;45528;-77
2023/07/05 07:22:16;;;;;;;;;2.33;2.33;;;;;19.74;60.99;-19735.06;4938969;28;45749;-76
2023/07/05 07:24:42;;;;;;;;;3.00;3.00;;;;;19.74;61.32;-19735.06;4946760;28;45486;-80
2023/07/05 07:27:08;;;;;;;;;3.00;2.00;;;;;19.89;61.76;-19738.94;4928469;28;45677;-78
2023/07/05 07:29:34;;;;;;;;;3.00;2.00;;;;;19.93;61.41;-19739.88;4947534;28;47161;-77
2023/07/05 07:32:03;;;;;;;;;3.67;3.67;;;;;19.98;61.34;-19741.22;4944560;28;45452;-77
2023/07/05 07:34:31;;;;;;;;;3.00;3.00;;;;;19.90;61.01;-19739.22;4945221;28;45526;-77
2023/07/05 07:36:56;;;;;;;;;2.67;2.67;;;;;20.14;60.73;-19745.47;4937515;28;45795;-77
2023/07/05 07:39:21;;;;;;;;;2.67;2.00;;;;;20.09;60.50;-19744.16;4952011;28;45754;-78
2023/07/05 07:41:47;;;;;;;;;3.33;1.33;;;;;20.28;60.66;-19748.94;4928094;28;45436;-77
2023/07/05 07:44:12;;;;;;;;;1.00;1.00;;;;;20.28;60.60;-19749.09;4944225;28;45811;-76
2023/07/05 07:46:39;;;;;;;;;2.67;2.00;;;;;20.35;60.70;-19750.94;4946890;28;46574;-77
2023/07/05 07:49:06;;;;;;;;;2.33;2.33;;;;;20.42;60.07;-19752.81;4948625;28;46341;-78
2023/07/05 07:51:36;;;;;;;;;1.67;1.67;;;;;20.40;59.75;-19752.28;4954199;28;45385;-78
2023/07/05 07:54:02;;;;;;;;;2.00;2.00;;;;;20.44;59.68;-19753.34;4951269;28;45499;-79
2023/07/05 07:56:28;;;;;;;;;3.33;2.00;;;;;20.54;59.30;-19755.88;4942279;28;45442;-78
2023/07/05 07:58:55;;;;;;;;;4.67;1.00;;;;;20.40;59.89;-19752.28;4945297;28;47504;-78
2023/07/05 08:01:33;;;;;;;;;2.00;2.00;;;;;20.54;59.59;-19755.75;4946877;28;45831;-77
2023/07/05 08:04:02;;;;;;;;;3.00;3.00;;;;;20.62;59.53;-19758.00;4949822;28;45530;-77
2023/07/05 08:06:48;;;;;;;;;3.00;3.00;;;;;20.75;58.97;-19761.22;4942908;28;45541;-78
2023/07/05 08:09:27;;;;;;;;;3.00;3.00;;;;;20.86;59.69;-19764.13;4945255;28;46269;-77
2023/07/05 08:11:54;;;;;;;;;3.00;2.00;;;;;20.96;59.10;-19766.69;4941486;28;45497;-78
2023/07/05 08:14:19;;;;;;;;;1.00;1.00;;;;;20.97;57.82;-19766.94;4924166;28;45515;-76
2023/07/05 08:16:46;;;;;;;;;2.00;2.00;;;;;20.97;57.54;-19766.94;4940583;28;46820;-76
2023/07/05 08:19:12;;;;;;;;;3.00;1.00;;;;;21.07;58.11;-19769.59;4940190;28;47561;-77
2023/07/05 08:21:38;;;;;;;;;0.00;0.00;;;;;21.00;57.64;-19767.88;4943682;28;45962;-80
2023/07/05 08:24:04;;;;;;;;;3.00;1.67;;;;;21.05;57.10;-19767.22;4942967;28;45627;-77
2023/07/05 08:26:30;;;;;;;;;2.67;2.00;;;;;21.15;57.06;-19769.75;4928311;28;45545;-76
2023/07/05 08:28:57;;;;;;;;;2.00;2.00;;;;;21.18;56.19;-19770.56;4949562;28;48129;-79
2023/07/05 08:31:23;;;;;;;;;4.00;2.33;;;;;21.43;57.21;-19777.09;4919592;28;45588;-79
2023/07/05 08:33:49;;;;;;;;;1.67;1.67;;;;;21.44;56.79;-19777.22;4949740;28;45703;-80
2023/07/05 08:36:14;;;;;;;;;4.00;2.00;;;;;21.63;56.17;-19782.16;4943402;28;45473;-78
2023/07/05 08:38:47;;;;;;;;;3.00;3.00;;;;;21.58;55.97;-19780.81;4940887;28;45475;-79
2023/07/05 08:41:44;;;;;;;;;4.33;4.00;;;;;21.91;55.61;-19452.69;4948296;28;45685;-81
2023/07/05 08:44:09;;;;;;;;;3.00;3.00;;;;;22.01;55.67;-19455.16;4947732;28;46675;-80
2023/07/05 08:46:38;;;;;;;;;4.00;2.00;;;;;22.05;54.99;-19456.22;4941867;28;45465;-80
2023/07/05 08:49:12;;;;;;;;;1.00;1.00;;;;;21.97;54.38;-19117.03;4950890;28;45481;-78
2023/07/05 08:51:40;;;;;;;;;2.67;2.67;;;;;21.94;55.24;-19116.41;4942813;28;45470;-78
2023/07/05 08:54:10;;;;;;;;;2.67;2.67;;;;;21.85;54.89;-18777.31;4944838;28;45549;-77
2023/07/05 08:56:48;;;;;;;;;2.00;2.00;;;;;21.77;55.66;-19112.19;4935147;28;45522;-78
2023/07/05 08:59:25;;;;;;;;;3.00;3.00;;;;;21.99;55.46;-19117.56;4945157;28;46471;-77
2023/07/05 09:01:55;;;;;;;;;1.67;1.00;;;;;22.12;54.59;-18783.91;4946732;28;45405;-77
2023/07/05 09:04:32;;;;;;;;;1.00;1.00;;;;;22.24;54.68;-19123.94;4947088;28;45558;-78
2023/07/05 09:07:04;;;;;;;;;5.00;2.33;;;;;22.25;54.47;-18786.91;4956308;28;45426;-77
2023/07/05 09:09:49;;;;;;;;;2.00;2.00;;;;;22.25;54.34;-18449.75;4947789;28;45531;-78
2023/07/05 09:12:31;;;;;;;;;2.00;2.00;;;;;22.14;55.87;-19121.50;4941611;28;46012;-87
2023/07/05 09:15:11;;;;;;;;;9.67;6.00;;;;;22.17;57.25;-19459.22;4945533;28;45579;-79
2023/07/05 09:17:46;;;;;;;;;6.33;4.00;;;;;22.25;57.30;-19461.16;4943261;28;46061;-85
2023/07/05 09:20:40;;;;;;;;;3.00;3.00;;;;;22.46;56.73;-19466.63;4942629;28;45533;-88
2023/07/05 09:23:27;;;;;;;;;4.00;3.00;;;;;22.47;56.40;-19466.91;4938495;28;45726;-84
2023/07/05 09:26:01;;;;;;;;;4.67;3.00;;;;;22.25;55.54;-19124.19;4948307;28;45426;-82
2023/07/05 09:28:36;;;;;;;;;2.00;2.00;;;;;22.14;57.30;-19458.44;4952595;28;45466;-77
2023/07/05 09:31:10;;;;;;;;;3.67;3.00;;;;;24.20;55.49;-19850.81;4946060;28;47382;-79
2023/07/05 09:33:42;;;;;;;;;10.00;4.00;;;;;24.84;51.77;-19526.94;4939773;28;45562;-77
2023/07/05 09:36:18;;;;;;;;;3.67;2.00;;;;;26.69;48.46;-19573.88;4936183;28;45579;-78
2023/07/05 09:38:48;;;;;;;;;3.67;2.33;;;;;28.31;45.29;-16891.00;4953170;28;45521;-78
2023/07/05 09:41:20;;;;;;;;;3.50;2.00;;;;;30.02;42.97;-11117.13;4929645;28;46266;-79
2023/07/05 09:43:46;;;;;;;;;2.33;2.33;;;;;31.52;40.92;882.44;4942785;28;47034;-79
2023/07/05 09:46:25;;;;;;;;;2.33;2.00;;;;;30.91;39.24;27220.00;4944799;28;45508;-80
2023/07/05 09:48:51;;;;;;;;;1.00;1.00;;;;;29.47;40.13;36086.81;4942957;28;45621;-81
2023/07/05 09:51:17;;;;;;;;;2.25;2.25;;;;;28.49;41.67;36829.56;4948752;28;47183;-79
2023/07/05 09:53:49;;;;;;;;;4.50;4.00;;;;;27.71;42.29;38216.28;4947777;28;45509;-78
2023/07/05 09:56:18;;;;;;;;;2.50;2.00;;;;;26.95;44.32;35151.09;4945870;28;45452;-80
2023/07/05 09:58:44;;;;;;;;;2.00;2.00;;;;;26.47;44.51;32974.00;4926079;28;45642;-78
2023/07/05 10:01:17;;;;;;;;;5.33;4.00;;;;;26.08;46.28;26258.66;4944962;28;47017;-79
2023/07/05 10:03:53;;;;;;;;;3.00;3.00;;;;;25.96;46.47;26062.56;4947932;28;45476;-78
2023/07/05 10:06:23;;;;;;;;;2.00;2.00;;;;;25.76;46.56;25608.63;4944253;28;45919;-80
2023/07/05 10:08:50;;;;;;;;;1.33;1.33;;;;;25.40;46.42;26486.31;4928460;28;45667;-78
2023/07/05 10:11:35;;;;;;;;;2.00;2.00;;;;;25.11;47.52;25195.84;4937658;28;46701;-78
2023/07/05 10:14:06;;;;;;;;;2.67;2.67;;;;;24.76;49.16;19310.47;4946433;28;45685;-79
2023/07/05 10:16:53;;;;;;;;;3.00;3.00;;;;;24.59;48.70;18220.28;4951804;28;45516;-78
2023/07/05 10:19:30;;;;;;;;;2.33;2.00;;;;;24.86;48.79;16520.91;4944692;28;45410;-78
2023/07/05 10:22:06;;;;;;;;;5.67;3.00;;;;;24.80;47.74;18569.31;4943285;28;47084;-78
2023/07/05 10:24:46;;;;;;;;;4.33;2.67;;;;;24.84;48.21;18228.94;4940276;28;45783;-77
2023/07/05 10:27:36;;;;;;;;;4.00;4.00;;;;;24.87;47.97;18230.00;4943649;28;45461;-77
2023/07/05 10:30:06;;;;;;;;;2.00;2.00;;;;;24.55;47.41;19585.91;4943816;28;45419;-78
2023/07/05 10:32:32;;;;;;;;;2.33;2.33;;;;;24.85;47.77;20336.84;4909309;28;45870;-79
2023/07/05 10:34:59;;;;;;;;;2.00;2.00;;;;;24.73;48.03;19250.63;4941246;28;46195;-78
2023/07/05 10:37:28;;;;;;;;;5.00;4.00;;;;;24.85;48.63;18987.75;4939771;28;45530;-77
2023/07/05 10:39:53;;;;;;;;;3.00;3.00;;;;;25.23;48.09;17558.38;4942649;28;45572;-76
2023/07/05 10:42:19;;;;;;;;;2.00;2.00;;;;;25.91;47.01;15869.81;4941116;28;45702;-77
2023/07/05 10:44:44;;;;;;;;;2.33;2.00;;;;;26.46;45.32;18188.56;4947272;28;45567;-77
2023/07/05 10:47:13;;;;;;;;;4.33;2.33;;;;;26.86;43.99;21662.13;4933889;28;45541;-79
2023/07/05 10:49:38;;;;;;;;;2.00;2.00;;;;;27.23;43.58;24374.28;4924946;28;46624;-78
2023/07/05 10:52:10;;;;;;;;;2.00;2.00;;;;;27.47;42.69;26969.47;4938777;28;46524;-76
2023/07/05 10:54:44;;;;;;;;;4.00;2.00;;;;;27.61;42.25;29490.38;4949721;28;45477;-76
2023/07/05 10:57:20;;;;;;;;;2.50;2.50;;;;;28.09;41.43;30700.19;4946838;28;45698;-77
2023/07/05 10:59:51;;;;;;;;;2.67;2.67;;;;;28.27;40.76;33420.53;4942241;28;45928;-77
2023/07/05 11:02:26;;;;;;;;;2.33;2.00;;;;;28.11;40.75;37247.31;4946512;28;46200;-77
2023/07/05 11:04:53;;;;;;;;;2.33;2.00;;;;;27.96;40.30;40165.03;4932700;28;47188;-78
2023/07/05 11:07:21;;;;;;;;;1.50;1.50;;;;;27.77;40.94;41355.31;4944716;28;45570;-78
2023/07/05 11:09:46;;;;;;;;;81.25;67.00;;;;;27.43;41.32;42221.06;4938637;28;45541;-80
2023/07/05 11:12:18;;;;;;;;;6.33;4.33;;;;;27.26;41.07;43667.84;4944012;28;47119;-80
2023/07/05 11:14:44;;;;;;;;;3.00;3.00;;;;;27.01;41.04;44625.84;4943430;28;45442;-81
2023/07/05 11:17:21;;;;;;;;;4.67;3.33;;;;;26.86;40.96;45183.22;4921507;28;45543;-80
2023/07/05 11:19:47;;;;;;;;;3.00;3.00;;;;;26.72;40.76;46451.03;4947318;28;45450;-80
2023/07/05 11:22:37;;;;;;;;;2.33;1.33;;;;;26.55;41.29;47538.13;4937357;28;48355;-79
2023/07/05 11:25:03;;;;;;;;;1.00;1.00;;;;;26.32;41.16;47665.44;4947795;28;45561;-79
2023/07/05 11:27:29;;;;;;;;;16.33;13.00;;;;;26.30;41.69;48033.25;4925842;28;45472;-77
2023/07/05 11:29:54;;;;;;;;;4.33;4.33;;;;;26.03;41.73;48412.28;4951938;28;45550;-77
2023/07/05 11:32:22;;;;;;;;;3.00;2.00;;;;;26.09;41.81;47872.75;4942678;28;45412;-77
2023/07/05 11:34:52;;;;;;;;;0.00;0.00;;;;;26.27;41.82;47936.34;4936297;28;45521;-77
2023/07/05 11:37:18;;;;;;;;;2.33;1.00;;;;;26.10;41.53;49249.22;4936991;28;45554;-77
2023/07/05 11:39:46;;;;;;;;;1.00;1.00;;;;;25.68;41.80;50396.88;4937592;28;45470;-77
2023/07/05 11:42:17;;;;;;;;;2.33;2.33;;;;;25.51;41.99;50325.38;4948551;28;46195;-84
2023/07/05 11:44:49;;;;;;;;;3.00;3.00;;;;;25.28;42.39;50573.22;4939468;28;46520;-86
2023/07/05 11:47:34;;;;;;;;;2.33;1.33;;;;;25.17;42.78;50795.22;4948709;28;45553;-83
2023/07/05 11:50:09;;;;;;;;;2.00;2.00;;;;;25.08;42.92;50630.56;4929887;28;45623;-83
2023/07/05 11:52:41;;;;;;;;;2.00;2.00;;;;;24.99;43.54;50480.78;4935653;28;47652;-82
2023/07/05 11:55:15;;;;;;;;;2.00;2.00;;;;;24.93;43.91;48868.19;4942921;28;46669;-82
2023/07/05 11:57:52;;;;;;;;;2.33;1.00;;;;;24.89;43.82;49494.66;4943842;28;45580;-82
2023/07/05 12:00:27;;;;;;;;;2.33;2.00;;;;;24.78;43.69;49509.81;4937100;28;45601;-82
2023/07/05 12:03:21;;;;;;;;;3.33;3.00;;;;;24.68;44.15;49078.25;4945460;28;46434;-82
2023/07/05 12:06:17;;;;;;;;;2.00;1.67;;;;;24.55;44.47;48736.66;4921586;28;45628;-82
2023/07/05 12:08:46;;;;;;;;;3.00;1.33;;;;;23.61;45.16;48443.84;4973823;23;45556;-83
2023/07/05 12:11:14;;;;;;;;;2.00;2.00;;;;;23.91;45.10;48415.13;4955683;28;45642;-83
2023/07/05 12:13:40;;;;;;;;;5.00;2.00;;;;;23.66;45.36;47980.72;4939794;28;47532;-82
2023/07/05 12:16:11;;;;;;;;;2.00;2.00;;;;;23.72;46.97;45322.16;4958182;28;45440;-82
2023/07/05 12:18:37;;;;;;;;;4.33;3.00;;;;;24.07;47.25;41030.38;4958184;28;45451;-82
2023/07/05 12:21:04;;;;;;;;;2.00;2.00;;;;;24.31;47.48;39866.38;4940868;28;45732;-81
2023/07/05 12:23:34;;;;;;;;;2.33;2.33;;;;;24.14;47.39;39707.56;4940487;28;47210;-82
2023/07/05 12:26:04;;;;;;;;;2.00;2.00;;;;;24.63;47.59;38174.09;4939683;28;46257;-79
2023/07/05 12:28:32;;;;;;;;;2.67;2.67;;;;;24.66;46.55;39350.88;4934092;28;45768;-79
2023/07/05 12:31:03;;;;;;;;;1.67;1.67;;;;;24.91;46.22;39695.59;4950882;28;45759;-82
2023/07/05 12:33:36;;;;;;;;;3.00;2.00;;;;;24.94;45.42;40820.41;4946278;28;45536;-79
2023/07/05 12:36:12;;;;;;;;;1.33;1.00;;;;;25.00;44.93;41469.53;4957370;28;45406;-81
2023/07/05 12:38:40;;;;;;;;;1.33;1.33;;;;;24.96;45.26;42235.13;4935440;28;45541;-82
2023/07/05 12:41:19;;;;;;;;;2.00;2.00;;;;;24.84;45.48;41788.63;4952255;28;45798;-81
2023/07/05 12:43:46;;;;;;;;;2.00;2.00;;;;;24.99;45.41;41883.00;4956043;28;46194;-79
2023/07/05 12:46:23;;;;;;;;;3.00;3.00;;;;;25.13;45.21;41457.22;4938188;28;45590;-80
2023/07/05 12:48:49;;;;;;;;;20.67;20.00;;;;;24.92;44.15;43167.75;4938420;28;45558;-79
2023/07/05 12:51:23;;;;;;;;;4.00;3.00;;;;;24.94;44.07;44373.25;4955002;28;45418;-79
2023/07/05 12:53:57;;;;;;;;;3.00;3.00;;;;;24.93;45.23;43877.78;4957499;28;46878;-80
2023/07/05 12:56:31;;;;;;;;;2.67;2.00;;;;;24.80;44.31;44408.41;4956816;28;45529;-79
2023/07/05 12:59:29;;;;;;;;;2.33;1.00;;;;;24.86;44.63;44789.50;4957303;28;45441;-79
2023/07/05 13:01:54;;;;;;;;;2.67;2.67;;;;;24.80;44.62;44854.69;4938655;28;45723;-80
2023/07/05 13:04:21;;;;;;;;;4.00;1.33;;;;;24.68;44.85;44923.56;4955825;28;45429;-78
2023/07/05 13:06:49;;;;;;;;;5.67;3.67;;;;;24.66;45.21;44846.34;4957219;28;46451;-79
2023/07/05 13:09:28;;;;;;;;;4.00;2.00;;;;;24.91;45.00;43747.59;4955464;28;45518;-79
2023/07/05 13:11:58;;;;;;;;;2.67;2.67;;;;;25.36;44.64;43068.31;4941858;28;45557;-79
2023/07/05 13:14:27;;;;;;;;;6.00;3.00;;;;;25.40;44.58;42807.75;4957326;28;46606;-77
2023/07/05 13:17:11;;;;;;;;;0.00;0.00;;;;;25.62;43.71;42705.97;4956951;28;45509;-81
2023/07/05 13:19:45;;;;;;;;;1.00;1.00;;;;;25.72;44.35;42072.72;4957034;28;45478;-80
2023/07/05 13:22:23;;;;;;;;;3.00;2.00;;;;;25.82;43.46;42892.50;4957670;28;45511;-80
2023/07/05 13:24:50;;;;;;;;;2.33;2.33;;;;;26.05;43.56;42266.44;4931795;28;46248;-80
2023/07/05 13:27:26;;;;;;;;;1.67;1.67;;;;;26.11;43.18;42747.47;4939441;28;45991;-79
2023/07/05 13:29:53;;;;;;;;;2.00;2.00;;;;;26.15;41.88;45200.88;4956982;28;45370;-79
2023/07/05 13:32:34;;;;;;;;;1.00;1.00;;;;;25.99;41.26;47656.81;4957357;28;45594;-79
2023/07/05 13:34:59;;;;;;;;;1.33;1.33;;;;;26.22;41.70;46988.03;4939548;28;47510;-79
2023/07/05 13:37:28;;;;;;;;;2.67;1.33;;;;;26.30;41.55;47771.66;4936088;28;45403;-80
2023/07/05 13:39:57;;;;;;;;;10.00;9.33;;;;;26.31;41.13;48244.47;4939153;28;45544;-80
2023/07/05 13:42:23;;;;;;;;;4.67;3.67;;;;;26.29;41.12;48731.00;4957301;28;45521;-81
2023/07/05 13:44:48;;;;;;;;;3.67;3.00;;;;;26.31;41.00;48721.47;4956657;28;47066;-82
2023/07/05 13:47:16;;;;;;;;;1.33;1.00;;;;;26.47;41.06;48988.72;4939569;28;45657;-81
2023/07/05 13:49:42;;;;;;;;;2.00;2.00;;;;;26.51;41.97;47610.31;4956896;28;45398;-80
2023/07/05 13:52:14;;;;;;;;;2.67;1.00;;;;;26.63;41.43;48405.13;4956919;28;45451;-81
2023/07/05 13:54:39;;;;;;;;;2.00;2.00;;;;;26.69;41.81;47878.53;4956143;28;47305;-82
2023/07/05 13:57:05;;;;;;;;;1.00;1.00;;;;;26.70;40.62;48975.16;4956955;28;45435;-80
2023/07/05 13:59:30;;;;;;;;;0.75;0.75;;;;;26.53;40.06;50564.34;4939495;28;45460;-78
2023/07/05 14:01:56;;;;;;;;;9.00;8.00;;;;;26.23;40.17;52011.97;4953332;28;45458;-78
2023/07/05 14:04:22;;;;;;;;;4.00;4.00;;;;;26.18;39.64;53443.66;4956440;28;46293;-78
2023/07/05 14:06:47;;;;;;;;;2.33;2.33;;;;;26.04;39.32;54044.00;4955382;28;45463;-78
2023/07/05 14:09:12;;;;;;;;;2.33;2.00;;;;;26.15;39.64;54340.09;4955168;28;45501;-78
2023/07/05 14:11:42;;;;;;;;;2.00;2.00;;;;;26.17;40.29;54236.66;4938337;28;45515;-78
2023/07/05 14:14:12;;;;;;;;;3.33;2.00;;;;;26.29;40.03;54089.06;4954968;28;46068;-77
2023/07/05 14:16:37;;;;;;;;;3.00;3.00;;;;;26.29;39.10;54178.19;4955207;28;45453;-79
2023/07/05 14:19:03;;;;;;;;;5.33;4.33;;;;;26.42;40.17;54086.81;4935121;28;45616;-78
2023/07/05 14:21:32;;;;;;;;;3.33;1.67;;;;;26.46;38.15;55841.72;4936780;28;46282;-79
2023/07/05 14:23:59;;;;;;;;;4.67;3.00;;;;;26.61;37.71;56629.56;4951056;28;46323;-81
2023/07/05 14:26:25;;;;;;;;;3.00;3.00;;;;;26.49;38.62;56628.59;4949059;28;45442;-82
2023/07/05 14:28:52;;;;;;;;;4.67;2.00;;;;;26.72;37.92;57486.50;4953611;28;45826;-78
2023/07/05 14:31:18;;;;;;;;;1.00;1.00;;;;;26.81;37.93;57706.00;4956188;28;45532;-78
2023/07/05 14:33:43;;;;;;;;;1.67;1.67;;;;;26.65;37.45;58115.25;4938837;28;47389;-79
2023/07/05 14:36:13;;;;;;;;;2.67;1.00;;;;;26.69;37.96;58274.00;4955619;28;45390;-80
2023/07/05 14:38:38;;;;;;;;;2.67;2.00;;;;;26.49;38.13;58418.84;4955834;28;45561;-79
2023/07/05 14:41:04;;;;;;;;;1.67;1.67;;;;;26.56;39.30;57816.81;4938930;28;45476;-78
2023/07/05 14:43:32;;;;;;;;;3.00;3.00;;;;;26.30;39.24;57840.47;4934197;28;47069;-78
2023/07/05 14:45:58;;;;;;;;;3.00;1.00;;;;;26.47;38.91;58222.56;4952418;28;45929;-80
2023/07/05 14:48:24;;;;;;;;;2.00;1.00;;;;;26.53;38.21;58639.28;4955332;28;45445;-81
2023/07/05 14:50:49;;;;;;;;;5.00;2.00;;;;;26.49;38.28;58733.13;4951537;28;46157;-82
2023/07/05 14:53:24;;;;;;;;;1.67;1.67;;;;;26.68;38.20;58567.41;4952085;28;47007;-83
2023/07/05 14:56:04;;;;;;;;;2.00;1.00;;;;;26.75;37.88;58701.69;4936779;28;45599;-86
2023/07/05 14:58:29;;;;;;;;;2.67;2.00;;;;;26.52;38.15;58849.78;4923941;28;45538;-89
2023/07/05 15:00:57;;;;;;;;;0.00;0.00;;;;;26.52;38.04;59168.50;4956466;28;45793;-89
2023/07/05 15:03:28;;;;;;;;;2.00;2.00;;;;;26.45;37.60;59629.91;4938445;28;48289;-88
2023/07/05 15:05:59;;;;;;;;;1.33;1.33;;;;;26.56;37.09;60238.31;4937958;28;45442;-89
2023/07/05 15:08:26;;;;;;;;;1.00;1.00;;;;;26.43;36.36;61221.69;4937694;28;45487;-88
2023/07/05 15:10:52;;;;;;;;;2.00;1.00;;;;;26.41;36.50;61541.66;4944084;28;45462;-88
2023/07/05 15:13:21;;;;;;;;;2.67;1.00;;;;;26.34;36.65;61867.13;4954270;28;46238;-88
2023/07/05 15:15:47;;;;;;;;;1.00;1.00;;;;;26.52;36.52;61794.28;4954087;28;45525;-88
2023/07/05 15:18:12;;;;;;;;;2.00;2.00;;;;;26.29;36.18;61951.66;4937253;28;45543;-87
2023/07/05 15:20:38;;;;;;;;;1.67;1.67;;;;;26.32;36.53;62095.06;4953823;28;45403;-87
2023/07/05 15:23:03;;;;;;;;;0.33;0.33;;;;;26.50;36.29;62276.22;4954246;28;46706;-87
2023/07/05 15:25:29;;;;;;;;;1.00;1.00;;;;;26.10;36.61;62413.50;4937400;28;45541;-88
2023/07/05 15:27:54;;;;;;;;;2.00;2.00;;;;;26.17;36.25;62633.78;4954485;28;45480;-87
2023/07/05 15:30:21;;;;;;;;;1.00;1.00;;;;;26.20;36.85;62696.53;4955163;28;45849;-87
2023/07/05 15:32:47;;;;;;;;;1.67;1.67;;;;;26.09;36.79;62739.88;4937534;28;47229;-86
2023/07/05 15:35:16;;;;;;;;;1.00;1.00;;;;;26.25;36.65;62904.97;4955655;28;45513;-87
2023/07/05 15:37:42;;;;;;;;;1.33;1.33;;;;;25.86;36.77;63020.69;4958179;28;45481;-87
2023/07/05 15:40:07;;;;;;;;;0.00;0.00;;;;;25.94;36.83;62937.38;4940707;28;45485;-87
2023/07/05 15:42:34;;;;;;;;;2.33;2.00;;;;;26.14;37.23;62930.94;4940610;28;47657;-87
2023/07/05 15:44:59;;;;;;;;;1.00;1.00;;;;;25.87;37.74;62802.66;4958696;28;45513;-87
2023/07/05 15:47:25;;;;;;;;;2.00;2.00;;;;;26.10;37.88;62657.06;4960794;28;45525;-87
2023/07/05 15:49:51;;;;;;;;;1.00;1.00;;;;;26.27;37.74;62528.16;4962116;28;45677;-87
2023/07/05 15:52:16;;;;;;;;;1.00;1.00;;;;;25.79;37.79;62486.19;4930241;28;46864;-87
2023/07/05 15:54:43;;;;;;;;;2.00;1.67;;;;;26.29;37.57;62714.94;4954518;28;45431;-88
2023/07/05 15:57:09;;;;;;;;;3.33;2.00;;;;;26.11;37.69;62666.25;4946411;28;45411;-87
2023/07/05 15:59:34;;;;;;;;;1.00;1.00;;;;;26.26;37.79;62771.25;4938906;28;45526;-88
2023/07/05 16:02:05;;;;;;;;;1.00;1.00;;;;;26.10;37.30;62975.84;4956903;28;45611;-88
2023/07/05 16:04:31;;;;;;;;;1.00;1.00;;;;;25.98;37.14;63333.56;4939556;28;46323;-87
2023/07/05 16:06:58;;;;;;;;;2.67;2.67;;;;;25.85;37.24;63407.03;4958788;28;45842;-87
2023/07/05 16:09:26;;;;;;;;;1.00;1.00;;;;;25.44;37.45;63503.94;4958817;28;45525;-87
2023/07/05 16:11:51;;;;;;;;;4.00;1.50;;;;;25.67;37.18;63606.47;4941337;28;46441;-87
2023/07/05 16:14:16;;;;;;;;;1.00;1.00;;;;;25.41;37.58;63773.75;4942420;28;45402;-87
2023/07/05 16:16:42;;;;;;;;;1.33;1.33;;;;;25.20;37.79;63786.38;4941440;28;45475;-87
2023/07/05 16:19:08;;;;;;;;;2.33;2.33;;;;;25.45;37.52;63875.50;4959004;28;45426;-87
2023/07/05 16:21:36;;;;;;;;;3.00;2.33;;;;;25.50;37.95;63766.88;4938153;28;47237;-87
2023/07/05 16:24:01;;;;;;;;;3.00;3.00;;;;;25.30;37.71;63758.97;4956884;28;45588;-87
2023/07/05 16:26:28;;;;;;;;;1.00;1.00;;;;;25.19;37.95;63809.59;4956252;28;45362;-87
2023/07/05 16:28:54;;;;;;;;;2.00;2.00;;;;;25.44;38.15;63827.88;4957309;28;45526;-87
2023/07/05 16:31:19;;;;;;;;;1.00;1.00;;;;;25.42;38.08;63747.78;4956850;28;45437;-86
2023/07/05 16:33:47;;;;;;;;;1.33;1.33;;;;;25.20;38.52;63686.34;4956441;28;45599;-87
2023/07/05 16:36:13;;;;;;;;;1.00;1.00;;;;;25.31;38.29;63668.16;4938136;28;45554;-87
2023/07/05 16:38:38;;;;;;;;;2.00;2.00;;;;;25.30;38.80;63598.91;4954632;28;45477;-87
2023/07/05 16:41:03;;;;;;;;;2.00;2.00;;;;;25.32;38.04;63787.66;4954771;28;46702;-87